sensor_id;sensor_type;location;lat;lon;timestamp;P1;durP1;ratioP1;P2;durP2;ratioP2
71626;SDS011;59475;52.464;13.590;2023-03-21T00:00:13;12.65;;;9.27;;
71626;SDS011;59475;52.464;13.590;2023-03-21T00:02:40;12.85;;;8.07;;
71626;SDS011;59475;52.464;13.590;2023-03-21T00:05:05;17.37;;;8.80;;
71626;SDS011;59475;52.464;13.590;2023-03-21T00:07:31;13.10;;;9.20;;
71626;SDS011;59475;52.464;13.590;2023-03-21T00:09:56;11.10;;;8.70;;
71626;SDS011;59475;52.464;13.590;2023-03-21T00:12:23;13.50;;;9.33;;
71626;SDS011;59475;52.464;13.590;2023-03-21T00:14:48;13.63;;;9.37;;
71626;SDS011;59475;52.464;13.590;2023-03-21T00:17:14;14.90;;;9.60;;
71626;SDS011;59475;52.464;13.590;2023-03-21T00:19:40;13.45;;;8.88;;
71626;SDS011;59475;52.464;13.590;2023-03-21T00:22:06;11.30;;;7.97;;
71626;SDS011;59475;52.464;13.590;2023-03-21T00:24:32;12.73;;;8.20;;
71626;SDS011;59475;52.464;13.590;2023-03-21T00:26:57;11.82;;;8.85;;
71626;SDS011;59475;52.464;13.590;2023-03-21T00:29:23;13.43;;;8.60;;
71626;SDS011;59475;52.464;13.590;2023-03-21T00:31:48;11.93;;;7.47;;
71626;SDS011;59475;52.464;13.590;2023-03-21T00:34:13;11.43;;;7.57;;
71626;SDS011;59475;52.464;13.590;2023-03-21T00:36:39;11.07;;;8.05;;
71626;SDS011;59475;52.464;13.590;2023-03-21T00:39:04;11.43;;;7.83;;
71626;SDS011;59475;52.464;13.590;2023-03-21T00:41:30;10.37;;;7.83;;
71626;SDS011;59475;52.464;13.590;2023-03-21T00:43:55;12.37;;;8.07;;
71626;SDS011;59475;52.464;13.590;2023-03-21T00:46:21;13.07;;;6.70;;
71626;SDS011;59475;52.464;13.590;2023-03-21T00:48:47;10.27;;;7.57;;
71626;SDS011;59475;52.464;13.590;2023-03-21T00:51:19;9.43;;;7.47;;
71626;SDS011;59475;52.464;13.590;2023-03-21T00:53:50;12.52;;;7.68;;
71626;SDS011;59475;52.464;13.590;2023-03-21T00:56:17;12.93;;;7.25;;
71626;SDS011;59475;52.464;13.590;2023-03-21T00:58:42;12.53;;;7.30;;
71626;SDS011;59475;52.464;13.590;2023-03-21T01:01:08;10.27;;;7.15;;
71626;SDS011;59475;52.464;13.590;2023-03-21T01:03:33;8.53;;;6.60;;
71626;SDS011;59475;52.464;13.590;2023-03-21T01:06:06;11.33;;;6.90;;
71626;SDS011;59475;52.464;13.590;2023-03-21T01:08:38;9.90;;;6.95;;
71626;SDS011;59475;52.464;13.590;2023-03-21T01:11:10;11.10;;;6.90;;
71626;SDS011;59475;52.464;13.590;2023-03-21T01:13:38;11.68;;;7.82;;
71626;SDS011;59475;52.464;13.590;2023-03-21T01:16:03;12.93;;;7.47;;
71626;SDS011;59475;52.464;13.590;2023-03-21T01:18:30;10.73;;;7.25;;
71626;SDS011;59475;52.464;13.590;2023-03-21T01:20:57;11.90;;;8.07;;
71626;SDS011;59475;52.464;13.590;2023-03-21T01:23:24;12.77;;;9.90;;
71626;SDS011;59475;52.464;13.590;2023-03-21T01:25:51;14.40;;;9.77;;
71626;SDS011;59475;52.464;13.590;2023-03-21T01:28:17;15.20;;;10.10;;
71626;SDS011;59475;52.464;13.590;2023-03-21T01:30:47;14.18;;;10.43;;
71626;SDS011;59475;52.464;13.590;2023-03-21T01:33:14;15.32;;;10.43;;
71626;SDS011;59475;52.464;13.590;2023-03-21T01:35:40;13.87;;;10.37;;
71626;SDS011;59475;52.464;13.590;2023-03-21T01:38:05;16.77;;;11.00;;
71626;SDS011;59475;52.464;13.590;2023-03-21T01:40:31;15.50;;;10.73;;
71626;SDS011;59475;52.464;13.590;2023-03-21T01:42:56;16.47;;;11.73;;
71626;SDS011;59475;52.464;13.590;2023-03-21T01:48:25;19.83;;;12.07;;
71626;SDS011;59475;52.464;13.590;2023-03-21T01:50:53;18.33;;;12.35;;
71626;SDS011;59475;52.464;13.590;2023-03-21T01:53:19;17.10;;;12.05;;
71626;SDS011;59475;52.464;13.590;2023-03-21T01:55:47;17.63;;;12.65;;
71626;SDS011;59475;52.464;13.590;2023-03-21T01:58:13;18.27;;;12.47;;
71626;SDS011;59475;52.464;13.590;2023-03-21T02:00:42;18.83;;;12.70;;
71626;SDS011;59475;52.464;13.590;2023-03-21T02:03:09;19.08;;;13.00;;
71626;SDS011;59475;52.464;13.590;2023-03-21T02:08:12;18.20;;;12.35;;
71626;SDS011;59475;52.464;13.590;2023-03-21T02:10:38;22.50;;;13.93;;
71626;SDS011;59475;52.464;13.590;2023-03-21T02:13:07;18.73;;;13.18;;
71626;SDS011;59475;52.464;13.590;2023-03-21T02:15:37;19.70;;;13.70;;
71626;SDS011;59475;52.464;13.590;2023-03-21T02:28:55;24.33;;;14.27;;
71626;SDS011;59475;52.464;13.590;2023-03-21T02:31:27;20.80;;;14.38;;
71626;SDS011;59475;52.464;13.590;2023-03-21T02:36:49;25.25;;;16.33;;
71626;SDS011;59475;52.464;13.590;2023-03-21T02:45:27;26.35;;;15.50;;
71626;SDS011;59475;52.464;13.590;2023-03-21T02:48:20;26.90;;;16.90;;
71626;SDS011;59475;52.464;13.590;2023-03-21T02:50:50;24.23;;;16.80;;
71626;SDS011;59475;52.464;13.590;2023-03-21T02:53:18;28.42;;;16.92;;
71626;SDS011;59475;52.464;13.590;2023-03-21T02:55:46;27.90;;;17.40;;
71626;SDS011;59475;52.464;13.590;2023-03-21T02:58:14;32.17;;;19.63;;
71626;SDS011;59475;52.464;13.590;2023-03-21T03:00:43;27.65;;;17.77;;
71626;SDS011;59475;52.464;13.590;2023-03-21T03:03:10;33.03;;;19.63;;
71626;SDS011;59475;52.464;13.590;2023-03-21T03:05:41;30.45;;;18.70;;
71626;SDS011;59475;52.464;13.590;2023-03-21T03:14:08;25.70;;;17.85;;
71626;SDS011;59475;52.464;13.590;2023-03-21T03:19:06;30.63;;;19.25;;
71626;SDS011;59475;52.464;13.590;2023-03-21T03:24:15;30.80;;;18.90;;
71626;SDS011;59475;52.464;13.590;2023-03-21T03:26:59;32.03;;;19.30;;
71626;SDS011;59475;52.464;13.590;2023-03-21T03:29:28;31.42;;;19.20;;
71626;SDS011;59475;52.464;13.590;2023-03-21T03:31:57;32.22;;;19.52;;
71626;SDS011;59475;52.464;13.590;2023-03-21T03:34:28;31.00;;;18.47;;
71626;SDS011;59475;52.464;13.590;2023-03-21T03:37:04;32.00;;;20.08;;
71626;SDS011;59475;52.464;13.590;2023-03-21T03:39:37;32.65;;;19.75;;
71626;SDS011;59475;52.464;13.590;2023-03-21T03:42:09;30.85;;;19.30;;
71626;SDS011;59475;52.464;13.590;2023-03-21T03:44:40;29.92;;;19.35;;
71626;SDS011;59475;52.464;13.590;2023-03-21T03:49:50;30.20;;;19.92;;
71626;SDS011;59475;52.464;13.590;2023-03-21T03:52:26;29.48;;;18.75;;
71626;SDS011;59475;52.464;13.590;2023-03-21T03:54:55;30.07;;;19.27;;
71626;SDS011;59475;52.464;13.590;2023-03-21T03:57:20;31.23;;;20.65;;
71626;SDS011;59475;52.464;13.590;2023-03-21T03:59:46;33.38;;;20.60;;
71626;SDS011;59475;52.464;13.590;2023-03-21T04:02:12;33.10;;;20.47;;
71626;SDS011;59475;52.464;13.590;2023-03-21T04:04:38;30.25;;;18.25;;
71626;SDS011;59475;52.464;13.590;2023-03-21T04:07:05;30.95;;;19.92;;
71626;SDS011;59475;52.464;13.590;2023-03-21T04:09:31;32.73;;;19.97;;
71626;SDS011;59475;52.464;13.590;2023-03-21T04:11:57;34.75;;;20.30;;
71626;SDS011;59475;52.464;13.590;2023-03-21T04:14:23;34.40;;;19.83;;
71626;SDS011;59475;52.464;13.590;2023-03-21T04:16:49;33.72;;;20.73;;
71626;SDS011;59475;52.464;13.590;2023-03-21T04:19:16;38.60;;;19.70;;
71626;SDS011;59475;52.464;13.590;2023-03-21T04:21:42;30.67;;;20.02;;
71626;SDS011;59475;52.464;13.590;2023-03-21T04:24:08;34.47;;;20.57;;
71626;SDS011;59475;52.464;13.590;2023-03-21T04:26:33;32.50;;;20.85;;
71626;SDS011;59475;52.464;13.590;2023-03-21T04:29:00;33.47;;;20.67;;
71626;SDS011;59475;52.464;13.590;2023-03-21T04:31:26;34.53;;;20.75;;
71626;SDS011;59475;52.464;13.590;2023-03-21T04:33:55;33.78;;;20.17;;
71626;SDS011;59475;52.464;13.590;2023-03-21T04:36:24;32.38;;;20.00;;
71626;SDS011;59475;52.464;13.590;2023-03-21T04:38:52;36.25;;;21.15;;
71626;SDS011;59475;52.464;13.590;2023-03-21T04:41:18;38.70;;;20.67;;
71626;SDS011;59475;52.464;13.590;2023-03-21T04:43:45;37.05;;;20.83;;
71626;SDS011;59475;52.464;13.590;2023-03-21T04:46:11;36.30;;;20.60;;
71626;SDS011;59475;52.464;13.590;2023-03-21T04:48:36;33.75;;;19.40;;
71626;SDS011;59475;52.464;13.590;2023-03-21T04:51:02;33.67;;;19.47;;
71626;SDS011;59475;52.464;13.590;2023-03-21T04:53:27;33.63;;;19.97;;
71626;SDS011;59475;52.464;13.590;2023-03-21T04:55:53;35.53;;;20.50;;
71626;SDS011;59475;52.464;13.590;2023-03-21T04:58:18;31.85;;;18.63;;
71626;SDS011;59475;52.464;13.590;2023-03-21T05:00:44;35.93;;;21.17;;
71626;SDS011;59475;52.464;13.590;2023-03-21T05:03:10;34.72;;;20.98;;
71626;SDS011;59475;52.464;13.590;2023-03-21T05:05:43;34.55;;;19.20;;
71626;SDS011;59475;52.464;13.590;2023-03-21T05:08:09;33.80;;;18.67;;
71626;SDS011;59475;52.464;13.590;2023-03-21T05:10:35;35.75;;;19.77;;
71626;SDS011;59475;52.464;13.590;2023-03-21T05:13:00;35.03;;;19.90;;
71626;SDS011;59475;52.464;13.590;2023-03-21T05:15:25;31.00;;;19.40;;
71626;SDS011;59475;52.464;13.590;2023-03-21T05:17:51;37.30;;;19.70;;
71626;SDS011;59475;52.464;13.590;2023-03-21T05:20:16;41.73;;;19.83;;
71626;SDS011;59475;52.464;13.590;2023-03-21T05:22:42;29.63;;;18.33;;
71626;SDS011;59475;52.464;13.590;2023-03-21T05:25:10;30.80;;;17.83;;
71626;SDS011;59475;52.464;13.590;2023-03-21T05:27:37;34.67;;;19.73;;
71626;SDS011;59475;52.464;13.590;2023-03-21T05:30:13;32.10;;;18.30;;
71626;SDS011;59475;52.464;13.590;2023-03-21T05:32:40;35.53;;;19.45;;
71626;SDS011;59475;52.464;13.590;2023-03-21T05:35:07;30.63;;;18.17;;
71626;SDS011;59475;52.464;13.590;2023-03-21T05:37:32;30.53;;;18.20;;
71626;SDS011;59475;52.464;13.590;2023-03-21T05:39:58;37.78;;;19.25;;
71626;SDS011;59475;52.464;13.590;2023-03-21T05:42:23;38.07;;;19.20;;
71626;SDS011;59475;52.464;13.590;2023-03-21T05:44:49;35.50;;;18.52;;
71626;SDS011;59475;52.464;13.590;2023-03-21T05:47:15;33.23;;;17.70;;
71626;SDS011;59475;52.464;13.590;2023-03-21T05:49:42;30.05;;;17.15;;
71626;SDS011;59475;52.464;13.590;2023-03-21T05:52:07;32.70;;;18.47;;
71626;SDS011;59475;52.464;13.590;2023-03-21T05:54:33;35.35;;;18.88;;
71626;SDS011;59475;52.464;13.590;2023-03-21T05:56:59;36.13;;;19.05;;
71626;SDS011;59475;52.464;13.590;2023-03-21T05:59:24;34.97;;;18.57;;
71626;SDS011;59475;52.464;13.590;2023-03-21T06:01:50;36.80;;;19.55;;
71626;SDS011;59475;52.464;13.590;2023-03-21T06:04:15;33.63;;;19.50;;
71626;SDS011;59475;52.464;13.590;2023-03-21T06:06:41;38.13;;;20.13;;
71626;SDS011;59475;52.464;13.590;2023-03-21T06:09:06;33.80;;;19.00;;
71626;SDS011;59475;52.464;13.590;2023-03-21T06:11:33;39.35;;;20.60;;
71626;SDS011;59475;52.464;13.590;2023-03-21T06:14:01;38.43;;;19.20;;
71626;SDS011;59475;52.464;13.590;2023-03-21T06:16:26;36.35;;;19.42;;
71626;SDS011;59475;52.464;13.590;2023-03-21T06:18:53;31.75;;;17.95;;
71626;SDS011;59475;52.464;13.590;2023-03-21T06:21:18;35.90;;;18.27;;
71626;SDS011;59475;52.464;13.590;2023-03-21T06:23:44;35.20;;;17.83;;
71626;SDS011;59475;52.464;13.590;2023-03-21T06:26:10;31.20;;;18.55;;
71626;SDS011;59475;52.464;13.590;2023-03-21T06:28:37;34.40;;;17.38;;
71626;SDS011;59475;52.464;13.590;2023-03-21T06:31:02;30.37;;;16.23;;
71626;SDS011;59475;52.464;13.590;2023-03-21T06:33:28;37.10;;;17.90;;
71626;SDS011;59475;52.464;13.590;2023-03-21T06:35:54;33.90;;;18.33;;
71626;SDS011;59475;52.464;13.590;2023-03-21T06:38:22;34.20;;;18.33;;
71626;SDS011;59475;52.464;13.590;2023-03-21T06:40:48;32.42;;;17.48;;
71626;SDS011;59475;52.464;13.590;2023-03-21T06:43:14;36.78;;;19.48;;
71626;SDS011;59475;52.464;13.590;2023-03-21T06:45:40;32.33;;;17.73;;
71626;SDS011;59475;52.464;13.590;2023-03-21T06:48:06;33.72;;;18.63;;
71626;SDS011;59475;52.464;13.590;2023-03-21T06:50:31;39.87;;;19.87;;
71626;SDS011;59475;52.464;13.590;2023-03-21T06:52:56;34.53;;;19.83;;
71626;SDS011;59475;52.464;13.590;2023-03-21T06:55:23;31.35;;;17.63;;
71626;SDS011;59475;52.464;13.590;2023-03-21T06:57:51;38.15;;;18.38;;
71626;SDS011;59475;52.464;13.590;2023-03-21T07:00:17;33.60;;;17.45;;
71626;SDS011;59475;52.464;13.590;2023-03-21T07:02:43;32.50;;;16.87;;
71626;SDS011;59475;52.464;13.590;2023-03-21T07:05:11;38.35;;;19.48;;
71626;SDS011;59475;52.464;13.590;2023-03-21T07:07:37;41.13;;;19.58;;
71626;SDS011;59475;52.464;13.590;2023-03-21T07:10:03;34.97;;;17.60;;
71626;SDS011;59475;52.464;13.590;2023-03-21T07:12:29;38.22;;;19.75;;
71626;SDS011;59475;52.464;13.590;2023-03-21T07:14:58;34.67;;;18.33;;
71626;SDS011;59475;52.464;13.590;2023-03-21T07:17:26;39.05;;;19.20;;
71626;SDS011;59475;52.464;13.590;2023-03-21T07:19:52;35.40;;;18.87;;
71626;SDS011;59475;52.464;13.590;2023-03-21T07:22:17;37.47;;;18.58;;
71626;SDS011;59475;52.464;13.590;2023-03-21T07:24:43;33.17;;;18.23;;
71626;SDS011;59475;52.464;13.590;2023-03-21T07:27:12;38.10;;;19.48;;
71626;SDS011;59475;52.464;13.590;2023-03-21T07:29:38;33.28;;;16.58;;
71626;SDS011;59475;52.464;13.590;2023-03-21T07:32:03;40.23;;;18.90;;
71626;SDS011;59475;52.464;13.590;2023-03-21T07:34:29;37.03;;;19.10;;
71626;SDS011;59475;52.464;13.590;2023-03-21T07:36:57;34.80;;;19.20;;
71626;SDS011;59475;52.464;13.590;2023-03-21T07:39:25;28.67;;;15.20;;
71626;SDS011;59475;52.464;13.590;2023-03-21T07:41:51;43.70;;;20.02;;
71626;SDS011;59475;52.464;13.590;2023-03-21T07:44:19;38.15;;;19.02;;
71626;SDS011;59475;52.464;13.590;2023-03-21T07:46:48;36.78;;;18.45;;
71626;SDS011;59475;52.464;13.590;2023-03-21T07:49:13;35.43;;;18.23;;
71626;SDS011;59475;52.464;13.590;2023-03-21T07:51:39;39.70;;;20.63;;
71626;SDS011;59475;52.464;13.590;2023-03-21T07:54:04;41.15;;;19.98;;
71626;SDS011;59475;52.464;13.590;2023-03-21T07:56:30;41.63;;;20.30;;
71626;SDS011;59475;52.464;13.590;2023-03-21T07:58:56;35.20;;;18.63;;
71626;SDS011;59475;52.464;13.590;2023-03-21T08:01:23;42.33;;;20.40;;
71626;SDS011;59475;52.464;13.590;2023-03-21T08:03:48;37.13;;;18.73;;
71626;SDS011;59475;52.464;13.590;2023-03-21T08:06:15;45.58;;;22.08;;
71626;SDS011;59475;52.464;13.590;2023-03-21T08:08:40;40.80;;;20.17;;
71626;SDS011;59475;52.464;13.590;2023-03-21T08:11:06;38.40;;;19.67;;
71626;SDS011;59475;52.464;13.590;2023-03-21T08:13:32;41.50;;;20.38;;
71626;SDS011;59475;52.464;13.590;2023-03-21T08:15:57;42.58;;;21.92;;
71626;SDS011;59475;52.464;13.590;2023-03-21T08:18:23;37.83;;;20.67;;
71626;SDS011;59475;52.464;13.590;2023-03-21T08:20:52;37.73;;;20.37;;
71626;SDS011;59475;52.464;13.590;2023-03-21T08:23:18;41.15;;;20.92;;
71626;SDS011;59475;52.464;13.590;2023-03-21T08:25:43;38.00;;;19.97;;
71626;SDS011;59475;52.464;13.590;2023-03-21T08:28:09;42.00;;;20.30;;
71626;SDS011;59475;52.464;13.590;2023-03-21T08:30:34;35.47;;;17.97;;
71626;SDS011;59475;52.464;13.590;2023-03-21T08:33:01;41.72;;;20.45;;
71626;SDS011;59475;52.464;13.590;2023-03-21T08:35:28;39.55;;;19.40;;
71626;SDS011;59475;52.464;13.590;2023-03-21T08:37:55;44.50;;;21.33;;
71626;SDS011;59475;52.464;13.590;2023-03-21T08:40:21;38.05;;;19.73;;
71626;SDS011;59475;52.464;13.590;2023-03-21T08:42:46;41.40;;;20.47;;
71626;SDS011;59475;52.464;13.590;2023-03-21T08:45:13;34.70;;;19.07;;
71626;SDS011;59475;52.464;13.590;2023-03-21T08:47:40;36.38;;;20.67;;
71626;SDS011;59475;52.464;13.590;2023-03-21T08:50:07;38.30;;;18.70;;
71626;SDS011;59475;52.464;13.590;2023-03-21T08:52:36;35.10;;;19.08;;
71626;SDS011;59475;52.464;13.590;2023-03-21T08:55:01;39.03;;;19.80;;
71626;SDS011;59475;52.464;13.590;2023-03-21T08:57:27;34.53;;;18.75;;
71626;SDS011;59475;52.464;13.590;2023-03-21T08:59:54;36.33;;;17.45;;
71626;SDS011;59475;52.464;13.590;2023-03-21T09:02:19;36.70;;;19.70;;
71626;SDS011;59475;52.464;13.590;2023-03-21T09:04:45;33.90;;;16.45;;
71626;SDS011;59475;52.464;13.590;2023-03-21T09:07:11;28.93;;;15.53;;
71626;SDS011;59475;52.464;13.590;2023-03-21T09:09:39;35.88;;;18.23;;
71626;SDS011;59475;52.464;13.590;2023-03-21T09:12:05;39.60;;;18.95;;
71626;SDS011;59475;52.464;13.590;2023-03-21T09:14:31;37.75;;;19.15;;
71626;SDS011;59475;52.464;13.590;2023-03-21T09:16:57;34.40;;;16.90;;
71626;SDS011;59475;52.464;13.590;2023-03-21T09:19:22;37.00;;;18.17;;
71626;SDS011;59475;52.464;13.590;2023-03-21T09:21:48;38.37;;;19.13;;
71626;SDS011;59475;52.464;13.590;2023-03-21T09:24:13;37.97;;;19.07;;
71626;SDS011;59475;52.464;13.590;2023-03-21T09:26:39;30.87;;;15.73;;
71626;SDS011;59475;52.464;13.590;2023-03-21T09:29:05;33.63;;;17.90;;
71626;SDS011;59475;52.464;13.590;2023-03-21T09:31:31;34.60;;;17.83;;
71626;SDS011;59475;52.464;13.590;2023-03-21T09:33:57;34.58;;;17.88;;
71626;SDS011;59475;52.464;13.590;2023-03-21T09:36:22;26.77;;;15.60;;
71626;SDS011;59475;52.464;13.590;2023-03-21T09:38:51;32.07;;;17.00;;
71626;SDS011;59475;52.464;13.590;2023-03-21T09:41:39;34.13;;;17.25;;
71626;SDS011;59475;52.464;13.590;2023-03-21T09:47:20;33.35;;;17.17;;
71626;SDS011;59475;52.464;13.590;2023-03-21T09:49:54;30.67;;;16.63;;
71626;SDS011;59475;52.464;13.590;2023-03-21T09:52:29;31.20;;;15.87;;
71626;SDS011;59475;52.464;13.590;2023-03-21T09:55:19;35.78;;;16.38;;
71626;SDS011;59475;52.464;13.590;2023-03-21T09:57:49;30.63;;;16.58;;
71626;SDS011;59475;52.464;13.590;2023-03-21T10:00:24;30.77;;;17.67;;
71626;SDS011;59475;52.464;13.590;2023-03-21T10:02:55;32.60;;;17.13;;
71626;SDS011;59475;52.464;13.590;2023-03-21T10:05:26;25.57;;;16.13;;
71626;SDS011;59475;52.464;13.590;2023-03-21T10:08:07;28.63;;;16.38;;
71626;SDS011;59475;52.464;13.590;2023-03-21T10:11:00;28.73;;;14.63;;
71626;SDS011;59475;52.464;13.590;2023-03-21T10:13:40;29.25;;;15.15;;
71626;SDS011;59475;52.464;13.590;2023-03-21T10:16:16;28.02;;;15.85;;
71626;SDS011;59475;52.464;13.590;2023-03-21T10:18:58;29.40;;;16.03;;
71626;SDS011;59475;52.464;13.590;2023-03-21T10:21:27;28.70;;;16.17;;
71626;SDS011;59475;52.464;13.590;2023-03-21T10:23:53;29.88;;;15.40;;
71626;SDS011;59475;52.464;13.590;2023-03-21T10:26:21;24.88;;;14.48;;
71626;SDS011;59475;52.464;13.590;2023-03-21T10:28:50;28.17;;;15.18;;
71626;SDS011;59475;52.464;13.590;2023-03-21T10:31:19;27.87;;;16.80;;
71626;SDS011;59475;52.464;13.590;2023-03-21T10:33:49;29.23;;;15.25;;
71626;SDS011;59475;52.464;13.590;2023-03-21T10:36:18;30.38;;;16.38;;
71626;SDS011;59475;52.464;13.590;2023-03-21T10:38:47;30.92;;;16.00;;
71626;SDS011;59475;52.464;13.590;2023-03-21T10:41:14;26.55;;;13.25;;
71626;SDS011;59475;52.464;13.590;2023-03-21T10:43:41;26.50;;;14.87;;
71626;SDS011;59475;52.464;13.590;2023-03-21T10:46:12;21.88;;;13.68;;
71626;SDS011;59475;52.464;13.590;2023-03-21T10:48:43;24.88;;;13.85;;
71626;SDS011;59475;52.464;13.590;2023-03-21T10:51:14;26.60;;;14.90;;
71626;SDS011;59475;52.464;13.590;2023-03-21T10:53:45;27.63;;;14.03;;
71626;SDS011;59475;52.464;13.590;2023-03-21T10:56:15;27.15;;;14.85;;
71626;SDS011;59475;52.464;13.590;2023-03-21T10:58:43;25.42;;;14.60;;
71626;SDS011;59475;52.464;13.590;2023-03-21T11:01:12;24.95;;;13.77;;
71626;SDS011;59475;52.464;13.590;2023-03-21T11:03:58;24.10;;;12.43;;
71626;SDS011;59475;52.464;13.590;2023-03-21T11:06:30;25.03;;;14.13;;
71626;SDS011;59475;52.464;13.590;2023-03-21T11:09:03;24.10;;;14.43;;
71626;SDS011;59475;52.464;13.590;2023-03-21T11:11:48;23.00;;;13.65;;
71626;SDS011;59475;52.464;13.590;2023-03-21T11:14:37;23.05;;;12.43;;
71626;SDS011;59475;52.464;13.590;2023-03-21T11:19:47;19.83;;;10.40;;
71626;SDS011;59475;52.464;13.590;2023-03-21T11:22:15;22.52;;;12.35;;
71626;SDS011;59475;52.464;13.590;2023-03-21T11:24:44;22.25;;;11.50;;
71626;SDS011;59475;52.464;13.590;2023-03-21T11:27:17;23.52;;;12.23;;
71626;SDS011;59475;52.464;13.590;2023-03-21T11:29:46;27.03;;;12.87;;
71626;SDS011;59475;52.464;13.590;2023-03-21T11:37:38;19.63;;;12.05;;
71626;SDS011;59475;52.464;13.590;2023-03-21T11:45:27;21.55;;;12.50;;
71626;SDS011;59475;52.464;13.590;2023-03-21T11:48:06;19.75;;;12.57;;
71626;SDS011;59475;52.464;13.590;2023-03-21T11:50:41;20.65;;;12.50;;
71626;SDS011;59475;52.464;13.590;2023-03-21T11:56:19;18.70;;;12.20;;
71626;SDS011;59475;52.464;13.590;2023-03-21T11:59:29;23.85;;;12.65;;
71626;SDS011;59475;52.464;13.590;2023-03-21T12:20:54;22.50;;;13.48;;
71626;SDS011;59475;52.464;13.590;2023-03-21T12:23:49;26.02;;;16.10;;
71626;SDS011;59475;52.464;13.590;2023-03-21T12:26:37;25.80;;;14.25;;
71626;SDS011;59475;52.464;13.590;2023-03-21T12:32:04;24.70;;;14.67;;
71626;SDS011;59475;52.464;13.590;2023-03-21T12:40:08;21.70;;;12.88;;
71626;SDS011;59475;52.464;13.590;2023-03-21T12:47:46;24.95;;;14.88;;
71626;SDS011;59475;52.464;13.590;2023-03-21T12:52:55;23.55;;;14.02;;
71626;SDS011;59475;52.464;13.590;2023-03-21T12:55:24;25.50;;;13.52;;
71626;SDS011;59475;52.464;13.590;2023-03-21T13:00:57;23.30;;;13.50;;
71626;SDS011;59475;52.464;13.590;2023-03-21T13:03:34;23.77;;;13.15;;
71626;SDS011;59475;52.464;13.590;2023-03-21T13:06:06;22.40;;;13.77;;
71626;SDS011;59475;52.464;13.590;2023-03-21T13:11:20;23.07;;;12.80;;
71626;SDS011;59475;52.464;13.590;2023-03-21T13:16:36;19.00;;;12.00;;
71626;SDS011;59475;52.464;13.590;2023-03-21T13:21:50;21.45;;;12.43;;
71626;SDS011;59475;52.464;13.590;2023-03-21T13:26:43;19.07;;;12.53;;
71626;SDS011;59475;52.464;13.590;2023-03-21T13:29:19;17.88;;;10.75;;
71626;SDS011;59475;52.464;13.590;2023-03-21T13:31:47;18.50;;;10.50;;
71626;SDS011;59475;52.464;13.590;2023-03-21T13:34:13;20.88;;;10.85;;
71626;SDS011;59475;52.464;13.590;2023-03-21T13:36:39;15.30;;;9.83;;
71626;SDS011;59475;52.464;13.590;2023-03-21T13:39:06;15.93;;;9.43;;
71626;SDS011;59475;52.464;13.590;2023-03-21T13:41:43;15.57;;;10.38;;
71626;SDS011;59475;52.464;13.590;2023-03-21T13:47:38;18.05;;;11.20;;
71626;SDS011;59475;52.464;13.590;2023-03-21T13:52:40;15.88;;;9.98;;
71626;SDS011;59475;52.464;13.590;2023-03-21T13:55:14;15.30;;;9.65;;
71626;SDS011;59475;52.464;13.590;2023-03-21T13:57:45;16.43;;;10.13;;
71626;SDS011;59475;52.464;13.590;2023-03-21T14:00:15;14.38;;;9.80;;
71626;SDS011;59475;52.464;13.590;2023-03-21T14:05:20;14.23;;;9.93;;
71626;SDS011;59475;52.464;13.590;2023-03-21T14:07:48;15.90;;;10.07;;
71626;SDS011;59475;52.464;13.590;2023-03-21T14:10:21;18.40;;;11.43;;
71626;SDS011;59475;52.464;13.590;2023-03-21T14:12:49;14.95;;;10.00;;
71626;SDS011;59475;52.464;13.590;2023-03-21T14:15:17;14.13;;;9.15;;
71626;SDS011;59475;52.464;13.590;2023-03-21T14:17:48;16.48;;;10.45;;
71626;SDS011;59475;52.464;13.590;2023-03-21T14:20:27;16.17;;;9.47;;
71626;SDS011;59475;52.464;13.590;2023-03-21T14:22:54;14.07;;;9.35;;
71626;SDS011;59475;52.464;13.590;2023-03-21T14:25:21;14.50;;;9.30;;
71626;SDS011;59475;52.464;13.590;2023-03-21T14:27:49;10.23;;;6.67;;
71626;SDS011;59475;52.464;13.590;2023-03-21T14:30:19;15.05;;;8.98;;
71626;SDS011;59475;52.464;13.590;2023-03-21T14:32:48;18.08;;;9.90;;
71626;SDS011;59475;52.464;13.590;2023-03-21T14:35:13;11.40;;;8.30;;
71626;SDS011;59475;52.464;13.590;2023-03-21T14:37:40;13.50;;;8.15;;
71626;SDS011;59475;52.464;13.590;2023-03-21T14:40:16;14.18;;;9.13;;
71626;SDS011;59475;52.464;13.590;2023-03-21T14:42:46;16.27;;;8.80;;
71626;SDS011;59475;52.464;13.590;2023-03-21T14:47:41;8.55;;;5.68;;
71626;SDS011;59475;52.464;13.590;2023-03-21T14:50:19;12.77;;;9.18;;
71626;SDS011;59475;52.464;13.590;2023-03-21T14:52:49;15.70;;;9.18;;
71626;SDS011;59475;52.464;13.590;2023-03-21T14:55:17;10.30;;;7.60;;
71626;SDS011;59475;52.464;13.590;2023-03-21T14:57:43;11.30;;;8.07;;
71626;SDS011;59475;52.464;13.590;2023-03-21T15:00:11;14.68;;;7.70;;
71626;SDS011;59475;52.464;13.590;2023-03-21T15:02:44;11.20;;;7.75;;
71626;SDS011;59475;52.464;13.590;2023-03-21T15:05:28;9.87;;;7.77;;
71626;SDS011;59475;52.464;13.590;2023-03-21T15:07:59;9.68;;;7.10;;
71626;SDS011;59475;52.464;13.590;2023-03-21T15:10:55;9.75;;;7.22;;
71626;SDS011;59475;52.464;13.590;2023-03-21T15:14:00;15.27;;;7.10;;
71626;SDS011;59475;52.464;13.590;2023-03-21T15:16:19;9.82;;;7.10;;
71626;SDS011;59475;52.464;13.590;2023-03-21T15:18:46;9.57;;;7.45;;
71626;SDS011;59475;52.464;13.590;2023-03-21T15:24:03;13.40;;;7.95;;
71626;SDS011;59475;52.464;13.590;2023-03-21T15:26:44;8.57;;;6.60;;
71626;SDS011;59475;52.464;13.590;2023-03-21T15:29:14;9.90;;;7.80;;
71626;SDS011;59475;52.464;13.590;2023-03-21T15:31:40;13.48;;;7.70;;
71626;SDS011;59475;52.464;13.590;2023-03-21T15:34:06;9.30;;;7.35;;
71626;SDS011;59475;52.464;13.590;2023-03-21T15:36:43;10.10;;;7.97;;
71626;SDS011;59475;52.464;13.590;2023-03-21T15:39:16;12.15;;;8.07;;
71626;SDS011;59475;52.464;13.590;2023-03-21T15:41:55;10.43;;;7.88;;
71626;SDS011;59475;52.464;13.590;2023-03-21T15:44:27;10.00;;;8.13;;
71626;SDS011;59475;52.464;13.590;2023-03-21T15:46:53;12.90;;;8.65;;
71626;SDS011;59475;52.464;13.590;2023-03-21T15:49:32;10.53;;;8.37;;
71626;SDS011;59475;52.464;13.590;2023-03-21T15:54:33;9.73;;;8.27;;
71626;SDS011;59475;52.464;13.590;2023-03-21T15:57:14;10.55;;;8.07;;
71626;SDS011;59475;52.464;13.590;2023-03-21T15:59:46;11.32;;;8.95;;
71626;SDS011;59475;52.464;13.590;2023-03-21T16:02:16;10.90;;;8.43;;
71626;SDS011;59475;52.464;13.590;2023-03-21T16:04:55;12.50;;;9.82;;
71626;SDS011;59475;52.464;13.590;2023-03-21T16:07:26;12.75;;;9.32;;
71626;SDS011;59475;52.464;13.590;2023-03-21T16:09:56;10.17;;;9.00;;
71626;SDS011;59475;52.464;13.590;2023-03-21T16:12:26;16.33;;;9.97;;
71626;SDS011;59475;52.464;13.590;2023-03-21T16:14:51;13.88;;;10.00;;
71626;SDS011;59475;52.464;13.590;2023-03-21T16:19:55;12.38;;;10.00;;
71626;SDS011;59475;52.464;13.590;2023-03-21T16:22:20;16.03;;;11.27;;
71626;SDS011;59475;52.464;13.590;2023-03-21T16:24:46;15.63;;;10.98;;
71626;SDS011;59475;52.464;13.590;2023-03-21T16:27:12;13.20;;;10.90;;
71626;SDS011;59475;52.464;13.590;2023-03-21T16:29:39;15.30;;;10.95;;